sensor_id;sensor_type;location;lat;lon;timestamp;pressure;altitude;pressure_sealevel;temperature;humidity
6425;BME280;12193;42.642;23.384;2022-09-09T00:00:51;94704.09;;;18.51;88.86
6425;BME280;12193;42.642;23.384;2022-09-09T00:03:26;94695.19;;;18.73;87.96
6425;BME280;12193;42.642;23.384;2022-09-09T00:06:03;94692.78;;;18.50;88.84
6425;BME280;12193;42.642;23.384;2022-09-09T03:08:42;94666.88;;;17.39;93.90
6425;BME280;12193;42.642;23.384;2022-09-09T03:11:12;94674.69;;;17.50;93.62
6425;BME280;12193;42.642;23.384;2022-09-09T03:13:42;94678.34;;;17.49;93.96
6425;BME280;12193;42.642;23.384;2022-09-09T03:16:11;94678.19;;;17.39;95.57
6425;BME280;12193;42.642;23.384;2022-09-09T03:18:41;94667.94;;;17.10;98.02
6425;BME280;12193;42.642;23.384;2022-09-09T03:21:12;94677.81;;;17.19;98.65
6425;BME280;12193;42.642;23.384;2022-09-09T03:23:44;94670.31;;;17.11;99.80
6425;BME280;12193;42.642;23.384;2022-09-09T03:26:13;94676.50;;;17.05;100.00
6425;BME280;12193;42.642;23.384;2022-09-09T03:28:44;94676.13;;;17.13;100.00
6425;BME280;12193;42.642;23.384;2022-09-09T03:31:13;94677.63;;;17.09;100.00
6425;BME280;12193;42.642;23.384;2022-09-09T03:33:42;94672.84;;;17.06;100.00
6425;BME280;12193;42.642;23.384;2022-09-09T03:36:11;94676.88;;;16.97;100.00
6425;BME280;12193;42.642;23.384;2022-09-09T03:38:44;94679.31;;;16.87;100.00
6425;BME280;12193;42.642;23.384;2022-09-09T03:41:13;94669.88;;;17.03;100.00
6425;BME280;12193;42.642;23.384;2022-09-09T03:43:42;94685.09;;;17.01;100.00
6425;BME280;12193;42.642;23.384;2022-09-09T03:46:11;94677.81;;;16.91;100.00
6425;BME280;12193;42.642;23.384;2022-09-09T03:48:41;94675.56;;;16.83;100.00
6425;BME280;12193;42.642;23.384;2022-09-09T03:51:10;94664.19;;;16.67;100.00
6425;BME280;12193;42.642;23.384;2022-09-09T03:53:39;94677.13;;;16.68;100.00
6425;BME280;12193;42.642;23.384;2022-09-09T03:56:12;94676.91;;;16.58;100.00
6425;BME280;12193;42.642;23.384;2022-09-09T03:58:41;94676.56;;;16.55;100.00
6425;BME280;12193;42.642;23.384;2022-09-09T04:01:12;94677.59;;;16.54;100.00
6425;BME280;12193;42.642;23.384;2022-09-09T04:03:44;94686.63;;;16.85;100.00
6425;BME280;12193;42.642;23.384;2022-09-09T04:06:14;94690.47;;;16.94;100.00
6425;BME280;12193;42.642;23.384;2022-09-09T04:08:43;94684.09;;;16.90;100.00
6425;BME280;12193;42.642;23.384;2022-09-09T04:11:18;94684.25;;;16.84;100.00
6425;BME280;12193;42.642;23.384;2022-09-09T04:13:47;94694.44;;;16.80;100.00
6425;BME280;12193;42.642;23.384;2022-09-09T04:16:17;94696.06;;;16.70;100.00
6425;BME280;12193;42.642;23.384;2022-09-09T04:18:47;94682.25;;;16.63;100.00
6425;BME280;12193;42.642;23.384;2022-09-09T04:21:16;94685.13;;;16.89;100.00
6425;BME280;12193;42.642;23.384;2022-09-09T04:23:45;94684.34;;;16.89;100.00
6425;BME280;12193;42.642;23.384;2022-09-09T04:26:18;94685.19;;;16.67;100.00
6425;BME280;12193;42.642;23.384;2022-09-09T04:28:47;94684.03;;;16.74;100.00
6425;BME280;12193;42.642;23.384;2022-09-09T04:31:19;94686.56;;;16.80;100.00
6425;BME280;12193;42.642;23.384;2022-09-09T04:33:49;94690.53;;;16.83;99.92
6425;BME280;12193;42.642;23.384;2022-09-09T04:36:19;94679.84;;;16.62;100.00
6425;BME280;12193;42.642;23.384;2022-09-09T04:38:48;94681.94;;;16.60;99.93
6425;BME280;12193;42.642;23.384;2022-09-09T04:41:20;94690.28;;;16.84;98.99
6425;BME280;12193;42.642;23.384;2022-09-09T04:43:49;94699.28;;;16.61;99.56
6425;BME280;12193;42.642;23.384;2022-09-09T04:46:19;94699.75;;;16.46;100.00
6425;BME280;12193;42.642;23.384;2022-09-09T04:48:50;94709.56;;;16.39;100.00
6425;BME280;12193;42.642;23.384;2022-09-09T04:51:19;94704.06;;;16.52;100.00
6425;BME280;12193;42.642;23.384;2022-09-09T04:53:49;94684.22;;;16.45;100.00
6425;BME280;12193;42.642;23.384;2022-09-09T04:56:23;94687.22;;;16.37;100.00
6425;BME280;12193;42.642;23.384;2022-09-09T04:58:52;94686.06;;;16.44;100.00
6425;BME280;12193;42.642;23.384;2022-09-09T05:01:23;94676.75;;;16.65;100.00
6425;BME280;12193;42.642;23.384;2022-09-09T05:03:53;94673.41;;;16.80;100.00
6425;BME280;12193;42.642;23.384;2022-09-09T05:06:22;94675.66;;;16.88;99.05
6425;BME280;12193;42.642;23.384;2022-09-09T05:08:52;94686.25;;;16.93;98.06
6425;BME280;12193;42.642;23.384;2022-09-09T05:11:25;94675.25;;;17.08;97.25
6425;BME280;12193;42.642;23.384;2022-09-09T05:13:55;94660.78;;;17.22;96.64
6425;BME280;12193;42.642;23.384;2022-09-09T05:16:25;94662.97;;;17.41;95.47
6425;BME280;12193;42.642;23.384;2022-09-09T05:18:54;94662.03;;;17.64;94.16
6425;BME280;12193;42.642;23.384;2022-09-09T05:21:25;94673.25;;;17.75;93.29
6425;BME280;12193;42.642;23.384;2022-09-09T05:23:55;94672.13;;;17.88;91.21
6425;BME280;12193;42.642;23.384;2022-09-09T05:26:29;94664.59;;;18.13;90.51
6425;BME280;12193;42.642;23.384;2022-09-09T05:28:59;94658.03;;;18.32;89.06
6425;BME280;12193;42.642;23.384;2022-09-09T05:31:30;94660.09;;;18.30;88.97
6425;BME280;12193;42.642;23.384;2022-09-09T05:34:00;94659.50;;;18.66;86.28
6425;BME280;12193;42.642;23.384;2022-09-09T05:36:29;94661.38;;;18.91;85.21
6425;BME280;12193;42.642;23.384;2022-09-09T05:38:59;94658.69;;;19.66;81.68
6425;BME280;12193;42.642;23.384;2022-09-09T05:41:31;94656.72;;;20.70;76.72
6425;BME280;12193;42.642;23.384;2022-09-09T05:44:01;94645.34;;;21.76;70.83
6425;BME280;12193;42.642;23.384;2022-09-09T05:46:32;94650.59;;;22.94;67.11
6425;BME280;12193;42.642;23.384;2022-09-09T05:49:02;94663.25;;;23.16;63.18
6425;BME280;12193;42.642;23.384;2022-09-09T05:51:32;94662.06;;;24.66;58.78
6425;BME280;12193;42.642;23.384;2022-09-09T05:54:02;94663.09;;;25.12;54.62
6425;BME280;12193;42.642;23.384;2022-09-09T05:56:33;94654.16;;;25.26;53.54
6425;BME280;12193;42.642;23.384;2022-09-09T05:59:03;94648.00;;;25.07;53.62
6425;BME280;12193;42.642;23.384;2022-09-09T06:01:34;94651.53;;;25.95;50.98
6425;BME280;12193;42.642;23.384;2022-09-09T06:04:06;94648.25;;;25.66;51.38
6425;BME280;12193;42.642;23.384;2022-09-09T06:06:37;94659.69;;;26.75;48.59
6425;BME280;12193;42.642;23.384;2022-09-09T06:09:09;94669.38;;;26.71;48.79
6425;BME280;12193;42.642;23.384;2022-09-09T06:11:42;94678.41;;;25.80;50.05
6425;BME280;12193;42.642;23.384;2022-09-09T06:14:12;94665.59;;;25.82;50.22
6425;BME280;12193;42.642;23.384;2022-09-09T06:16:41;94669.91;;;26.41;49.27
6425;BME280;12193;42.642;23.384;2022-09-09T06:19:11;94665.78;;;26.04;49.59
6425;BME280;12193;42.642;23.384;2022-09-09T06:21:41;94661.22;;;26.04;49.95
6425;BME280;12193;42.642;23.384;2022-09-09T06:24:10;94655.25;;;25.94;49.67
6425;BME280;12193;42.642;23.384;2022-09-09T06:26:46;94660.66;;;26.66;48.05
6425;BME280;12193;42.642;23.384;2022-09-09T06:29:15;94670.75;;;26.69;46.87
6425;BME280;12193;42.642;23.384;2022-09-09T06:31:44;94664.13;;;26.53;47.39
6425;BME280;12193;42.642;23.384;2022-09-09T06:34:14;94665.91;;;27.11;46.23
6425;BME280;12193;42.642;23.384;2022-09-09T06:36:43;94666.03;;;27.68;44.54
6425;BME280;12193;42.642;23.384;2022-09-09T06:39:12;94659.38;;;25.86;49.10
6425;BME280;12193;42.642;23.384;2022-09-09T06:41:45;94656.34;;;26.70;46.98
6425;BME280;12193;42.642;23.384;2022-09-09T06:44:14;94648.66;;;27.44;45.64
6425;BME280;12193;42.642;23.384;2022-09-09T06:46:44;94656.97;;;27.43;45.57
6425;BME280;12193;42.642;23.384;2022-09-09T06:49:13;94651.41;;;26.90;47.26
6425;BME280;12193;42.642;23.384;2022-09-09T06:51:43;94657.31;;;27.01;47.67
6425;BME280;12193;42.642;23.384;2022-09-09T06:54:13;94662.53;;;26.52;48.07
6425;BME280;12193;42.642;23.384;2022-09-09T06:56:45;94666.00;;;26.52;48.92
6425;BME280;12193;42.642;23.384;2022-09-09T06:59:15;94673.09;;;25.80;49.95
6425;BME280;12193;42.642;23.384;2022-09-09T07:01:44;94672.72;;;27.31;46.47
6425;BME280;12193;42.642;23.384;2022-09-09T07:04:13;94665.38;;;28.07;44.66
6425;BME280;12193;42.642;23.384;2022-09-09T07:06:44;94667.25;;;27.49;46.04
6425;BME280;12193;42.642;23.384;2022-09-09T07:09:14;94672.06;;;27.25;46.71
6425;BME280;12193;42.642;23.384;2022-09-09T07:11:48;94681.84;;;25.80;49.29
6425;BME280;12193;42.642;23.384;2022-09-09T07:14:19;94678.34;;;26.17;48.60
6425;BME280;12193;42.642;23.384;2022-09-09T07:16:49;94667.75;;;25.98;48.81
6425;BME280;12193;42.642;23.384;2022-09-09T07:19:18;94664.75;;;26.32;47.65
6425;BME280;12193;42.642;23.384;2022-09-09T07:21:48;94664.75;;;26.32;48.37
6425;BME280;12193;42.642;23.384;2022-09-09T07:24:17;94659.09;;;26.65;46.10
6425;BME280;12193;42.642;23.384;2022-09-09T07:26:49;94661.53;;;26.48;47.15
6425;BME280;12193;42.642;23.384;2022-09-09T07:29:18;94656.25;;;26.75;47.74
6425;BME280;12193;42.642;23.384;2022-09-09T07:31:47;94657.53;;;27.04;45.85
6425;BME280;12193;42.642;23.384;2022-09-09T07:34:17;94655.44;;;27.01;46.03
6425;BME280;12193;42.642;23.384;2022-09-09T07:36:47;94650.56;;;27.79;43.95
6425;BME280;12193;42.642;23.384;2022-09-09T07:39:16;94644.13;;;28.02;43.29
6425;BME280;12193;42.642;23.384;2022-09-09T07:41:49;94645.78;;;28.20;43.85
6425;BME280;12193;42.642;23.384;2022-09-09T07:44:23;94656.16;;;27.91;43.38
6425;BME280;12193;42.642;23.384;2022-09-09T07:46:52;94663.19;;;27.51;43.66
6425;BME280;12193;42.642;23.384;2022-09-09T07:49:22;94664.81;;;27.74;44.38
6425;BME280;12193;42.642;23.384;2022-09-09T07:51:51;94659.44;;;28.10;42.91
6425;BME280;12193;42.642;23.384;2022-09-09T07:54:21;94654.28;;;28.74;41.17
6425;BME280;12193;42.642;23.384;2022-09-09T07:56:53;94654.91;;;29.18;40.26
6425;BME280;12193;42.642;23.384;2022-09-09T07:59:22;94662.53;;;29.33;40.39
6425;BME280;12193;42.642;23.384;2022-09-09T08:01:52;94655.13;;;29.39;40.74
6425;BME280;12193;42.642;23.384;2022-09-09T08:04:23;94647.16;;;30.15;38.11
6425;BME280;12193;42.642;23.384;2022-09-09T08:06:56;94643.97;;;29.87;38.22
6425;BME280;12193;42.642;23.384;2022-09-09T08:09:26;94641.94;;;29.59;39.49
6425;BME280;12193;42.642;23.384;2022-09-09T08:11:58;94654.63;;;28.42;41.30
6425;BME280;12193;42.642;23.384;2022-09-09T08:14:28;94661.97;;;27.71;42.22
6425;BME280;12193;42.642;23.384;2022-09-09T08:16:57;94658.19;;;26.96;44.42
6425;BME280;12193;42.642;23.384;2022-09-09T08:19:27;94656.78;;;26.45;45.50
6425;BME280;12193;42.642;23.384;2022-09-09T08:21:59;94649.97;;;25.57;48.44
6425;BME280;12193;42.642;23.384;2022-09-09T08:24:30;94656.72;;;25.86;47.43
6425;BME280;12193;42.642;23.384;2022-09-09T08:27:01;94647.19;;;25.99;48.23
6425;BME280;12193;42.642;23.384;2022-09-09T08:29:32;94648.31;;;26.11;46.56
6425;BME280;12193;42.642;23.384;2022-09-09T08:32:01;94651.63;;;26.35;47.56
6425;BME280;12193;42.642;23.384;2022-09-09T08:34:30;94650.41;;;26.73;45.98
6425;BME280;12193;42.642;23.384;2022-09-09T08:37:00;94653.22;;;26.36;46.65
6425;BME280;12193;42.642;23.384;2022-09-09T08:39:29;94651.31;;;25.91;47.26
6425;BME280;12193;42.642;23.384;2022-09-09T08:42:14;94654.56;;;26.65;45.90
6425;BME280;12193;42.642;23.384;2022-09-09T08:45:03;94650.41;;;26.73;45.92
6425;BME280;12193;42.642;23.384;2022-09-09T08:47:50;94644.38;;;26.09;46.92
6425;BME280;12193;42.642;23.384;2022-09-09T08:50:24;94636.81;;;25.47;49.08
6425;BME280;12193;42.642;23.384;2022-09-09T08:52:59;94643.56;;;25.76;48.62
6425;BME280;12193;42.642;23.384;2022-09-09T08:55:37;94645.78;;;25.88;49.10
6425;BME280;12193;42.642;23.384;2022-09-09T08:58:14;94636.50;;;25.48;49.31
6425;BME280;12193;42.642;23.384;2022-09-09T09:00:52;94633.50;;;25.36;50.36
6425;BME280;12193;42.642;23.384;2022-09-09T09:03:33;94643.69;;;25.66;48.72
6425;BME280;12193;42.642;23.384;2022-09-09T09:06:17;94637.50;;;26.35;47.50
6425;BME280;12193;42.642;23.384;2022-09-09T09:08:58;94641.31;;;26.60;47.50
6425;BME280;12193;42.642;23.384;2022-09-09T09:11:35;94633.91;;;25.62;48.94
6425;BME280;12193;42.642;23.384;2022-09-09T09:14:12;94642.69;;;26.13;47.77
6425;BME280;12193;42.642;23.384;2022-09-09T09:16:50;94640.81;;;26.58;46.91
6425;BME280;12193;42.642;23.384;2022-09-09T09:19:22;94638.25;;;26.94;46.61
6425;BME280;12193;42.642;23.384;2022-09-09T09:21:56;94644.38;;;27.08;45.09
6425;BME280;12193;42.642;23.384;2022-09-09T09:24:34;94634.94;;;27.24;44.99
6425;BME280;12193;42.642;23.384;2022-09-09T09:27:12;94629.94;;;27.09;46.01
6425;BME280;12193;42.642;23.384;2022-09-09T09:29:45;94624.25;;;26.16;49.44
6425;BME280;12193;42.642;23.384;2022-09-09T09:32:18;94621.94;;;25.96;48.83
6425;BME280;12193;42.642;23.384;2022-09-09T09:34:49;94636.84;;;25.97;49.62
6425;BME280;12193;42.642;23.384;2022-09-09T09:37:27;94638.47;;;26.25;48.75
6425;BME280;12193;42.642;23.384;2022-09-09T09:40:07;94631.56;;;26.38;48.39
6425;BME280;12193;42.642;23.384;2022-09-09T09:42:38;94633.13;;;26.57;47.87
6425;BME280;12193;42.642;23.384;2022-09-09T09:45:26;94632.91;;;26.53;47.45
6425;BME280;12193;42.642;23.384;2022-09-09T09:47:58;94628.09;;;27.09;46.04
6425;BME280;12193;42.642;23.384;2022-09-09T09:50:29;94616.25;;;27.72;43.99
6425;BME280;12193;42.642;23.384;2022-09-09T09:53:00;94602.03;;;28.38;42.19
6425;BME280;12193;42.642;23.384;2022-09-09T09:55:32;94608.56;;;27.57;44.54
6425;BME280;12193;42.642;23.384;2022-09-09T09:58:04;94608.16;;;27.86;44.25
6425;BME280;12193;42.642;23.384;2022-09-09T10:00:36;94605.69;;;27.54;44.59
6425;BME280;12193;42.642;23.384;2022-09-09T10:03:22;94595.47;;;27.69;44.66
6425;BME280;12193;42.642;23.384;2022-09-09T10:05:53;94595.97;;;27.71;44.64
6425;BME280;12193;42.642;23.384;2022-09-09T10:08:22;94593.16;;;27.76;45.10
6425;BME280;12193;42.642;23.384;2022-09-09T10:11:14;94601.91;;;28.21;44.79
6425;BME280;12193;42.642;23.384;2022-09-09T10:13:55;94606.28;;;28.39;43.83
6425;BME280;12193;42.642;23.384;2022-09-09T10:16:39;94616.34;;;27.89;45.04
6425;BME280;12193;42.642;23.384;2022-09-09T10:19:14;94608.63;;;27.31;46.23
6425;BME280;12193;42.642;23.384;2022-09-09T10:21:55;94612.34;;;27.08;47.40
6425;BME280;12193;42.642;23.384;2022-09-09T10:24:48;94620.34;;;26.81;47.71
6425;BME280;12193;42.642;23.384;2022-09-09T10:27:25;94622.72;;;26.96;47.88
6425;BME280;12193;42.642;23.384;2022-09-09T10:30:03;94624.50;;;27.14;48.33
6425;BME280;12193;42.642;23.384;2022-09-09T10:32:46;94619.28;;;27.09;48.07
6425;BME280;12193;42.642;23.384;2022-09-09T10:35:27;94623.91;;;27.17;48.60
6425;BME280;12193;42.642;23.384;2022-09-09T10:38:10;94625.19;;;27.19;49.24
6425;BME280;12193;42.642;23.384;2022-09-09T10:40:49;94624.09;;;26.93;48.58
6425;BME280;12193;42.642;23.384;2022-09-09T10:43:43;94622.66;;;26.74;48.38
6425;BME280;12193;42.642;23.384;2022-09-09T10:46:17;94625.03;;;26.17;49.73
6425;BME280;12193;42.642;23.384;2022-09-09T10:49:03;94625.44;;;26.24;50.17
6425;BME280;12193;42.642;23.384;2022-09-09T10:51:42;94620.03;;;26.42;50.12
6425;BME280;12193;42.642;23.384;2022-09-09T10:54:24;94623.94;;;26.18;50.50
6425;BME280;12193;42.642;23.384;2022-09-09T10:57:00;94626.72;;;26.26;51.03
6425;BME280;12193;42.642;23.384;2022-09-09T10:59:36;94622.69;;;26.29;51.36
6425;BME280;12193;42.642;23.384;2022-09-09T11:02:13;94619.53;;;26.40;50.55
6425;BME280;12193;42.642;23.384;2022-09-09T11:04:50;94618.34;;;26.19;51.18
6425;BME280;12193;42.642;23.384;2022-09-09T11:07:28;94621.00;;;26.33;52.19
6425;BME280;12193;42.642;23.384;2022-09-09T11:10:05;94619.22;;;26.28;50.34
6425;BME280;12193;42.642;23.384;2022-09-09T11:12:36;94622.00;;;26.37;50.69
6425;BME280;12193;42.642;23.384;2022-09-09T11:15:17;94626.81;;;26.21;50.93
6425;BME280;12193;42.642;23.384;2022-09-09T11:17:50;94628.28;;;26.45;51.05
6425;BME280;12193;42.642;23.384;2022-09-09T11:20:26;94621.72;;;26.38;51.01
6425;BME280;12193;42.642;23.384;2022-09-09T11:23:00;94620.47;;;26.62;50.55
6425;BME280;12193;42.642;23.384;2022-09-09T11:25:32;94606.53;;;26.79;49.94
6425;BME280;12193;42.642;23.384;2022-09-09T11:28:23;94617.97;;;26.93;49.31
6425;BME280;12193;42.642;23.384;2022-09-09T11:31:08;94610.00;;;26.66;50.01
6425;BME280;12193;42.642;23.384;2022-09-09T11:34:07;94593.97;;;26.79;49.73
6425;BME280;12193;42.642;23.384;2022-09-09T11:37:03;94590.72;;;26.69;49.66
6425;BME280;12193;42.642;23.384;2022-09-09T11:39:44;94577.78;;;26.89;49.04
6425;BME280;12193;42.642;23.384;2022-09-09T11:42:23;94578.53;;;26.90;48.86
6425;BME280;12193;42.642;23.384;2022-09-09T11:44:53;94574.28;;;26.89;49.51
6425;BME280;12193;42.642;23.384;2022-09-09T11:47:25;94575.31;;;26.79;50.38
6425;BME280;12193;42.642;23.384;2022-09-09T11:50:07;94567.44;;;26.47;51.38
6425;BME280;12193;42.642;23.384;2022-09-09T11:52:42;94555.53;;;26.40;51.23
6425;BME280;12193;42.642;23.384;2022-09-09T11:55:25;94535.22;;;26.57;52.05
6425;BME280;12193;42.642;23.384;2022-09-09T11:57:58;94534.22;;;26.13;52.10
6425;BME280;12193;42.642;23.384;2022-09-09T12:00:32;94530.84;;;26.21;51.63
6425;BME280;12193;42.642;23.384;2022-09-09T12:03:03;94527.91;;;26.23;51.74
6425;BME280;12193;42.642;23.384;2022-09-09T12:05:36;94537.47;;;26.50;50.88
6425;BME280;12193;42.642;23.384;2022-09-09T12:08:15;94543.47;;;26.83;50.10
6425;BME280;12193;42.642;23.384;2022-09-09T12:10:53;94546.00;;;27.15;49.11
6425;BME280;12193;42.642;23.384;2022-09-09T12:13:24;94537.25;;;27.45;49.57
6425;BME280;12193;42.642;23.384;2022-09-09T12:15:56;94536.88;;;26.40;50.14
6425;BME280;12193;42.642;23.384;2022-09-09T12:18:32;94536.97;;;26.62;50.59
6425;BME280;12193;42.642;23.384;2022-09-09T12:21:06;94534.09;;;26.85;50.74
6425;BME280;12193;42.642;23.384;2022-09-09T12:23:44;94520.34;;;27.27;49.71
6425;BME280;12193;42.642;23.384;2022-09-09T12:26:29;94510.25;;;27.24;48.98
6425;BME280;12193;42.642;23.384;2022-09-09T12:29:06;94522.09;;;27.10;49.09
6425;BME280;12193;42.642;23.384;2022-09-09T12:31:44;94508.53;;;27.42;48.47
6425;BME280;12193;42.642;23.384;2022-09-09T12:34:17;94517.41;;;27.37;48.99
6425;BME280;12193;42.642;23.384;2022-09-09T12:36:54;94503.63;;;27.44;47.91
6425;BME280;12193;42.642;23.384;2022-09-09T12:39:34;94502.44;;;27.49;49.50
6425;BME280;12193;42.642;23.384;2022-09-09T12:42:04;94493.81;;;27.52;48.63
6425;BME280;12193;42.642;23.384;2022-09-09T12:44:34;94499.19;;;27.61;48.95
6425;BME280;12193;42.642;23.384;2022-09-09T12:47:03;94495.81;;;27.47;48.47
6425;BME280;12193;42.642;23.384;2022-09-09T12:49:35;94498.88;;;27.62;48.70
6425;BME280;12193;42.642;23.384;2022-09-09T12:52:12;94503.13;;;26.98;50.00
6425;BME280;12193;42.642;23.384;2022-09-09T12:54:47;94502.53;;;27.01;49.74
6425;BME280;12193;42.642;23.384;2022-09-09T12:57:17;94500.91;;;27.13;50.10
6425;BME280;12193;42.642;23.384;2022-09-09T12:59:47;94498.63;;;26.71;50.61
6425;BME280;12193;42.642;23.384;2022-09-09T13:02:21;94479.50;;;26.91;50.23
6425;BME280;12193;42.642;23.384;2022-09-09T13:04:52;94480.63;;;27.34;48.71
6425;BME280;12193;42.642;23.384;2022-09-09T13:07:22;94481.28;;;27.31;48.56
6425;BME280;12193;42.642;23.384;2022-09-09T13:09:55;94478.06;;;27.21;48.79
6425;BME280;12193;42.642;23.384;2022-09-09T13:12:25;94469.13;;;27.25;48.77
6425;BME280;12193;42.642;23.384;2022-09-09T13:14:56;94472.84;;;27.02;49.60
6425;BME280;12193;42.642;23.384;2022-09-09T13:17:26;94466.88;;;27.41;49.05
6425;BME280;12193;42.642;23.384;2022-09-09T13:19:57;94468.63;;;27.67;48.14
6425;BME280;12193;42.642;23.384;2022-09-09T13:22:30;94471.44;;;28.01;47.45
6425;BME280;12193;42.642;23.384;2022-09-09T13:25:18;94477.63;;;27.05;48.78
6425;BME280;12193;42.642;23.384;2022-09-09T13:27:57;94469.13;;;27.25;48.75
6425;BME280;12193;42.642;23.384;2022-09-09T13:30:29;94457.66;;;27.55;48.30
6425;BME280;12193;42.642;23.384;2022-09-09T13:33:04;94446.94;;;27.68;48.89
6425;BME280;12193;42.642;23.384;2022-09-09T13:35:34;94453.56;;;27.71;48.88
6425;BME280;12193;42.642;23.384;2022-09-09T13:38:08;94453.69;;;27.66;49.11
6425;BME280;12193;42.642;23.384;2022-09-09T13:40:52;94448.59;;;27.64;49.36
6425;BME280;12193;42.642;23.384;2022-09-09T13:43:23;94448.44;;;26.95;51.52
6425;BME280;12193;42.642;23.384;2022-09-09T13:45:55;94445.91;;;26.68;53.04
6425;BME280;12193;42.642;23.384;2022-09-09T13:48:25;94453.84;;;26.82;52.37
6425;BME280;12193;42.642;23.384;2022-09-09T13:50:58;94439.44;;;26.21;53.72
6425;BME280;12193;42.642;23.384;2022-09-09T13:53:27;94436.78;;;25.94;54.81
6425;BME280;12193;42.642;23.384;2022-09-09T13:56:00;94439.16;;;26.09;54.57
6425;BME280;12193;42.642;23.384;2022-09-09T13:58:30;94430.63;;;26.47;53.94
6425;BME280;12193;42.642;23.384;2022-09-09T14:00:59;94440.88;;;26.40;53.58
6425;BME280;12193;42.642;23.384;2022-09-09T14:03:28;94433.16;;;26.65;53.06
6425;BME280;12193;42.642;23.384;2022-09-09T14:05:57;94434.81;;;26.97;52.19
6425;BME280;12193;42.642;23.384;2022-09-09T14:08:27;94429.91;;;27.34;51.51
6425;BME280;12193;42.642;23.384;2022-09-09T14:11:07;94434.38;;;27.47;50.84
6425;BME280;12193;42.642;23.384;2022-09-09T14:13:40;94434.22;;;27.74;50.25
6425;BME280;12193;42.642;23.384;2022-09-09T14:16:09;94427.50;;;27.76;50.38
6425;BME280;12193;42.642;23.384;2022-09-09T14:18:38;94429.78;;;28.00;49.49
6425;BME280;12193;42.642;23.384;2022-09-09T14:21:08;94422.56;;;28.00;48.72
6425;BME280;12193;42.642;23.384;2022-09-09T14:23:37;94422.00;;;27.51;49.89
6425;BME280;12193;42.642;23.384;2022-09-09T14:26:10;94425.63;;;27.55;50.67
6425;BME280;12193;42.642;23.384;2022-09-09T14:28:39;94423.63;;;27.30;51.42
6425;BME280;12193;42.642;23.384;2022-09-09T14:31:09;94415.16;;;26.93;52.04
6425;BME280;12193;42.642;23.384;2022-09-09T14:33:39;94417.38;;;27.13;50.62
6425;BME280;12193;42.642;23.384;2022-09-09T14:36:09;94412.81;;;27.13;50.83
6425;BME280;12193;42.642;23.384;2022-09-09T14:38:39;94407.63;;;27.08;51.01
6425;BME280;12193;42.642;23.384;2022-09-09T14:41:14;94417.25;;;27.18;50.59
6425;BME280;12193;42.642;23.384;2022-09-09T14:43:44;94414.69;;;26.91;51.70
6425;BME280;12193;42.642;23.384;2022-09-09T14:46:15;94413.63;;;26.78;53.34
6425;BME280;12193;42.642;23.384;2022-09-09T14:48:45;94408.84;;;26.67;54.29
6425;BME280;12193;42.642;23.384;2022-09-09T14:51:17;94403.22;;;26.68;54.89
6425;BME280;12193;42.642;23.384;2022-09-09T14:53:51;94407.78;;;26.41;55.33
6425;BME280;12193;42.642;23.384;2022-09-09T14:56:26;94416.31;;;26.30;54.31
6425;BME280;12193;42.642;23.384;2022-09-09T14:58:57;94415.38;;;26.12;55.54
6425;BME280;12193;42.642;23.384;2022-09-09T15:01:28;94416.44;;;26.25;54.76
6425;BME280;12193;42.642;23.384;2022-09-09T15:03:59;94419.31;;;26.15;55.53
6425;BME280;12193;42.642;23.384;2022-09-09T15:06:30;94419.94;;;25.98;55.90
6425;BME280;12193;42.642;23.384;2022-09-09T15:09:00;94417.94;;;25.90;56.94
6425;BME280;12193;42.642;23.384;2022-09-09T15:11:35;94426.34;;;25.84;56.86
6425;BME280;12193;42.642;23.384;2022-09-09T15:14:06;94432.78;;;25.64;58.01
6425;BME280;12193;42.642;23.384;2022-09-09T15:16:37;94437.03;;;25.52;58.47
6425;BME280;12193;42.642;23.384;2022-09-09T15:19:07;94436.44;;;25.55;58.61
6425;BME280;12193;42.642;23.384;2022-09-09T15:21:38;94439.91;;;25.55;58.69
6425;BME280;12193;42.642;23.384;2022-09-09T15:24:07;94436.53;;;25.50;58.54
6425;BME280;12193;42.642;23.384;2022-09-09T15:26:39;94432.09;;;25.45;58.82
6425;BME280;12193;42.642;23.384;2022-09-09T15:29:09;94432.09;;;25.45;58.44
6425;BME280;12193;42.642;23.384;2022-09-09T15:31:38;94430.31;;;25.41;58.80
6425;BME280;12193;42.642;23.384;2022-09-09T15:34:07;94434.06;;;25.40;58.96
6425;BME280;12193;42.642;23.384;2022-09-09T15:36:38;94422.91;;;25.38;59.56
6425;BME280;12193;42.642;23.384;2022-09-09T15:39:10;94417.78;;;25.41;59.51
6425;BME280;12193;42.642;23.384;2022-09-09T15:41:45;94421.16;;;25.47;59.15
6425;BME280;12193;42.642;23.384;2022-09-09T15:44:15;94424.00;;;25.37;59.41
6425;BME280;12193;42.642;23.384;2022-09-09T15:46:46;94423.50;;;25.35;60.24
6425;BME280;12193;42.642;23.384;2022-09-09T15:49:19;94420.13;;;25.30;61.19
6425;BME280;12193;42.642;23.384;2022-09-09T15:51:51;94421.53;;;25.09;61.78
6425;BME280;12193;42.642;23.384;2022-09-09T15:54:22;94416.16;;;25.14;61.47
6425;BME280;12193;42.642;23.384;2022-09-09T15:56:56;94415.97;;;24.92;62.14
6425;BME280;12193;42.642;23.384;2022-09-09T15:59:27;94421.72;;;25.12;61.36
6425;BME280;12193;42.642;23.384;2022-09-09T16:01:58;94419.53;;;25.19;61.24
6425;BME280;12193;42.642;23.384;2022-09-09T16:04:27;94416.59;;;25.02;61.30
6425;BME280;12193;42.642;23.384;2022-09-09T16:06:58;94414.66;;;24.89;61.63
6425;BME280;12193;42.642;23.384;2022-09-09T16:09:28;94416.41;;;24.80;62.33
6425;BME280;12193;42.642;23.384;2022-09-09T16:12:02;94417.66;;;25.01;60.68
6425;BME280;12193;42.642;23.384;2022-09-09T16:14:32;94414.19;;;25.01;60.63
6425;BME280;12193;42.642;23.384;2022-09-09T16:17:03;94423.25;;;24.86;61.34
6425;BME280;12193;42.642;23.384;2022-09-09T16:19:32;94426.34;;;24.75;62.12
6425;BME280;12193;42.642;23.384;2022-09-09T16:22:02;94414.19;;;24.69;62.21
6425;BME280;12193;42.642;23.384;2022-09-09T16:24:32;94414.63;;;24.76;62.07
6425;BME280;12193;42.642;23.384;2022-09-09T16:27:05;94420.94;;;24.80;62.11
6425;BME280;12193;42.642;23.384;2022-09-09T16:29:34;94419.72;;;24.72;62.36